createdAt,value
2023-01-30T00:00:37.832Z,1009.70
2023-01-30T00:01:37.817Z,1009.65
2023-01-30T00:02:37.805Z,1009.64
2023-01-30T00:03:37.811Z,1009.58
2023-01-30T00:04:37.787Z,1009.55
2023-01-30T00:05:37.767Z,1009.50
2023-01-30T00:06:37.760Z,1009.50
2023-01-30T00:07:37.747Z,1009.40
2023-01-30T00:08:37.749Z,1009.43
2023-01-30T00:09:37.741Z,1009.38
2023-01-30T00:10:37.719Z,1009.30
2023-01-30T00:11:37.700Z,1009.31
2023-01-30T00:12:37.692Z,1009.30
2023-01-30T00:13:37.702Z,1009.39
2023-01-30T00:14:37.687Z,1009.34
2023-01-30T00:15:37.663Z,1009.36
2023-01-30T00:16:37.693Z,1009.35
2023-01-30T00:17:37.634Z,1009.43
2023-01-30T00:18:37.646Z,1009.39
2023-01-30T00:19:37.630Z,1009.30
2023-01-30T00:20:37.630Z,1009.39
2023-01-30T00:21:37.620Z,1009.34
2023-01-30T00:22:37.589Z,1009.35
2023-01-30T00:23:37.579Z,1009.40
2023-01-30T00:24:37.759Z,1009.32
2023-01-30T00:25:37.795Z,1009.36
2023-01-30T00:26:37.624Z,1009.37
2023-01-30T00:27:37.525Z,1009.44
2023-01-30T00:28:37.530Z,1009.42
2023-01-30T00:29:37.510Z,1009.40
2023-01-30T00:30:37.532Z,1009.38
2023-01-30T00:31:37.519Z,1009.36
2023-01-30T00:32:37.485Z,1009.27
2023-01-30T00:33:37.464Z,1009.31
2023-01-30T00:34:37.448Z,1009.29
2023-01-30T00:35:37.433Z,1009.29
2023-01-30T00:36:37.441Z,1009.24
2023-01-30T00:37:37.420Z,1009.20
2023-01-30T00:38:37.452Z,1009.26
2023-01-30T00:39:37.398Z,1009.13
2023-01-30T00:40:37.395Z,1009.11
2023-01-30T00:41:37.383Z,1009.10
2023-01-30T00:42:37.363Z,1009.01
2023-01-30T00:43:37.353Z,1009.06
2023-01-30T00:44:37.342Z,1009.00
2023-01-30T00:45:37.383Z,1009.06
2023-01-30T00:46:37.325Z,1008.96
2023-01-30T00:47:37.305Z,1009.04
2023-01-30T00:48:37.307Z,1008.86
2023-01-30T00:49:37.297Z,1008.91
2023-01-30T00:50:37.275Z,1008.90
2023-01-30T00:51:37.265Z,1008.94
2023-01-30T00:52:37.250Z,1008.85
2023-01-30T00:53:37.242Z,1008.76
2023-01-30T00:54:37.245Z,1008.65
2023-01-30T00:55:37.232Z,1008.66
2023-01-30T00:56:37.224Z,1008.56
2023-01-30T00:57:37.195Z,1008.56
2023-01-30T00:58:37.186Z,1008.54
2023-01-30T00:59:37.175Z,1008.53
2023-01-30T01:00:37.168Z,1008.44
2023-01-30T01:01:37.205Z,1008.49
2023-01-30T01:02:37.169Z,1008.43
2023-01-30T01:03:37.131Z,1008.44
2023-01-30T01:04:37.118Z,1008.40
2023-01-30T01:05:37.131Z,1008.35
2023-01-30T01:06:37.109Z,1008.42
2023-01-30T01:07:37.089Z,1008.43
2023-01-30T01:08:37.084Z,1008.29
2023-01-30T01:09:37.061Z,1008.32
2023-01-30T01:10:37.071Z,1008.40
2023-01-30T01:11:37.051Z,1008.36
2023-01-30T01:12:37.027Z,1008.11
2023-01-30T01:13:37.026Z,1008.13
2023-01-30T01:14:37.008Z,1008.03
2023-01-30T01:15:37.000Z,1008.14
2023-01-30T01:16:37.104Z,1008.02
2023-01-30T01:17:36.978Z,1008.16
2023-01-30T01:18:36.992Z,1008.24
2023-01-30T01:19:36.958Z,1008.19
2023-01-30T01:20:36.958Z,1008.16
2023-01-30T01:21:36.941Z,1008.17
2023-01-30T01:22:36.923Z,1008.20
2023-01-30T01:23:36.916Z,1008.26
2023-01-30T01:24:36.904Z,1008.33
2023-01-30T01:25:36.878Z,1008.19
2023-01-30T01:26:36.916Z,1008.14
2023-01-30T01:27:36.864Z,1008.03
2023-01-30T01:28:36.858Z,1008.04
2023-01-30T01:29:36.854Z,1008.03
2023-01-30T01:30:36.827Z,1007.90
2023-01-30T01:31:36.932Z,1007.87
2023-01-30T01:32:36.808Z,1007.90
2023-01-30T01:33:36.807Z,1007.97
2023-01-30T01:34:36.782Z,1007.94
2023-01-30T01:35:36.779Z,1007.92
2023-01-30T01:36:52.778Z,1007.98
2023-01-30T01:37:37.750Z,1007.93
2023-01-30T01:38:36.753Z,1007.89
2023-01-30T01:39:36.750Z,1007.77
2023-01-30T01:40:36.738Z,1007.71
2023-01-30T01:41:36.710Z,1007.63
2023-01-30T01:42:36.702Z,1007.78
2023-01-30T01:43:36.691Z,1007.76
2023-01-30T01:44:36.671Z,1007.75
2023-01-30T01:45:36.713Z,1007.70
2023-01-30T01:46:36.699Z,1007.67
2023-01-30T01:47:36.657Z,1007.56
2023-01-30T01:48:36.634Z,1007.63
2023-01-30T01:49:36.629Z,1007.60
2023-01-30T01:50:36.614Z,1007.48
2023-01-30T01:51:36.599Z,1007.50
2023-01-30T01:52:36.586Z,1007.39
2023-01-30T01:53:36.594Z,1007.35
2023-01-30T01:54:36.569Z,1007.45
2023-01-30T01:55:36.555Z,1007.42
2023-01-30T01:56:36.543Z,1007.44
2023-01-30T01:57:36.536Z,1007.51
2023-01-30T01:58:36.545Z,1007.42
2023-01-30T01:59:36.512Z,1007.45
2023-01-30T02:00:36.513Z,1007.45
2023-01-30T02:01:36.497Z,1007.45
2023-01-30T02:02:36.532Z,1007.49
2023-01-30T02:03:36.469Z,1007.46
2023-01-30T02:04:36.469Z,1007.36
2023-01-30T02:05:36.445Z,1007.37
2023-01-30T02:06:36.433Z,1007.33
2023-01-30T02:07:36.432Z,1007.36
2023-01-30T02:08:36.445Z,1007.32
2023-01-30T02:09:36.416Z,1007.45
2023-01-30T02:10:36.411Z,1007.46
2023-01-30T02:11:36.383Z,1007.42
2023-01-30T02:12:36.371Z,1007.34
2023-01-30T02:13:36.375Z,1007.40
2023-01-30T02:14:36.354Z,1007.22
2023-01-30T02:15:36.338Z,1007.21
2023-01-30T02:16:36.328Z,1007.23
2023-01-30T02:17:36.420Z,1007.25
2023-01-30T02:18:36.312Z,1007.18
2023-01-30T02:19:36.291Z,1007.30
2023-01-30T02:20:36.284Z,1007.28
2023-01-30T02:21:36.292Z,1007.14
2023-01-30T02:22:36.263Z,1007.20
2023-01-30T02:23:36.255Z,1007.25
2023-01-30T02:24:36.247Z,1007.17
2023-01-30T02:25:36.225Z,1007.31
2023-01-30T02:26:36.265Z,1007.37
2023-01-30T02:27:36.207Z,1007.37
2023-01-30T02:28:36.197Z,1007.41
2023-01-30T02:29:36.208Z,1007.37
2023-01-30T02:30:36.234Z,1007.36
2023-01-30T02:31:36.312Z,1007.30
2023-01-30T02:32:36.147Z,1007.37
2023-01-30T02:33:36.145Z,1007.30
2023-01-30T02:34:36.177Z,1007.33
2023-01-30T02:35:36.128Z,1007.42
2023-01-30T02:36:36.106Z,1007.40
2023-01-30T02:37:36.094Z,1007.32
2023-01-30T02:38:36.084Z,1007.27
2023-01-30T02:39:36.068Z,1007.23
2023-01-30T02:40:36.076Z,1007.16
2023-01-30T02:41:36.061Z,1007.16
2023-01-30T02:42:36.034Z,1007.07
2023-01-30T02:43:36.046Z,1007.05
2023-01-30T02:44:36.024Z,1007.03
2023-01-30T02:45:36.038Z,1007.07
2023-01-30T02:46:35.993Z,1007.00
2023-01-30T02:47:35.999Z,1007.07
2023-01-30T02:48:35.966Z,1007.05
2023-01-30T02:49:35.959Z,1007.07
2023-01-30T02:50:35.946Z,1006.99
2023-01-30T02:51:35.947Z,1006.96
2023-01-30T02:52:35.955Z,1006.88
2023-01-30T02:53:35.931Z,1006.92
2023-01-30T02:54:35.906Z,1006.86
2023-01-30T02:55:35.900Z,1006.84
2023-01-30T02:56:35.892Z,1006.82
2023-01-30T02:57:35.873Z,1006.85
2023-01-30T02:58:35.881Z,1006.79
2023-01-30T02:59:35.860Z,1006.74
2023-01-30T03:00:35.841Z,1006.77
2023-01-30T03:01:35.884Z,1006.81
2023-01-30T03:02:35.856Z,1006.73
2023-01-30T03:03:35.815Z,1006.79
2023-01-30T03:04:35.823Z,1006.73
2023-01-30T03:05:35.797Z,1006.78
2023-01-30T03:06:35.790Z,1006.66
2023-01-30T03:07:35.773Z,1006.69
2023-01-30T03:08:35.752Z,1006.79
2023-01-30T03:09:35.744Z,1006.74
2023-01-30T03:10:35.725Z,1006.65
2023-01-30T03:11:35.719Z,1006.67
2023-01-30T03:12:35.717Z,1006.63
2023-01-30T03:13:35.721Z,1006.57
2023-01-30T03:14:35.688Z,1006.54
2023-01-30T03:15:35.683Z,1006.54
2023-01-30T03:16:35.668Z,1006.55
2023-01-30T03:17:35.650Z,1006.53
2023-01-30T03:18:35.658Z,1006.48
2023-01-30T03:19:35.643Z,1006.46
2023-01-30T03:20:35.615Z,1006.44
2023-01-30T03:21:35.618Z,1006.59
2023-01-30T03:22:35.603Z,1006.46
2023-01-30T03:23:35.591Z,1006.50
2023-01-30T03:24:35.575Z,1006.49
2023-01-30T03:25:35.579Z,1006.48
2023-01-30T03:26:35.643Z,1006.52
2023-01-30T03:27:35.570Z,1006.51
2023-01-30T03:28:35.528Z,1006.47
2023-01-30T03:29:35.516Z,1006.39
2023-01-30T03:30:35.609Z,1006.36
2023-01-30T03:31:35.692Z,1006.39
2023-01-30T03:32:35.482Z,1006.32
2023-01-30T03:33:35.497Z,1006.37
2023-01-30T03:34:35.465Z,1006.35
2023-01-30T03:35:35.451Z,1006.39
2023-01-30T03:36:35.467Z,1006.25
2023-01-30T03:37:35.435Z,1006.19
2023-01-30T03:38:35.417Z,1006.23
2023-01-30T03:39:35.417Z,1006.27
2023-01-30T03:40:35.393Z,1006.29
2023-01-30T03:41:35.384Z,1006.26
2023-01-30T03:42:35.392Z,1006.25
2023-01-30T03:43:35.378Z,1006.19
2023-01-30T03:44:35.370Z,1006.27
2023-01-30T03:45:35.345Z,1006.25
2023-01-30T03:46:35.325Z,1006.18
2023-01-30T03:47:35.322Z,1006.23
2023-01-30T03:48:35.323Z,1006.27
2023-01-30T03:49:35.302Z,1006.28
2023-01-30T03:50:35.291Z,1006.21
2023-01-30T03:51:35.283Z,1006.21
2023-01-30T03:52:35.258Z,1006.29
2023-01-30T03:53:35.252Z,1006.26
2023-01-30T03:54:35.250Z,1006.28
2023-01-30T03:55:35.232Z,1006.19
2023-01-30T03:56:35.215Z,1006.20
2023-01-30T03:57:35.213Z,1006.22
2023-01-30T03:58:35.224Z,1006.23
2023-01-30T03:59:35.188Z,1006.19
2023-01-30T04:00:35.190Z,1006.19
2023-01-30T04:01:35.192Z,1006.22
2023-01-30T04:02:35.272Z,1006.22
2023-01-30T04:03:35.147Z,1006.23
2023-01-30T04:04:35.136Z,1006.16
2023-01-30T04:05:35.116Z,1006.22
2023-01-30T04:06:36.605Z,1006.20
2023-01-30T04:07:35.108Z,1006.03
2023-01-30T04:08:35.099Z,1006.10
2023-01-30T04:09:35.083Z,1006.03
2023-01-30T04:10:35.059Z,1006.03
2023-01-30T04:11:35.080Z,1006.06
2023-01-30T04:12:35.038Z,1006.09
2023-01-30T04:13:35.044Z,1006.16
2023-01-30T04:14:35.031Z,1006.21
2023-01-30T04:15:35.037Z,1006.26
2023-01-30T04:16:35.033Z,1006.19
2023-01-30T04:17:34.991Z,1006.23
2023-01-30T04:18:34.978Z,1006.22
2023-01-30T04:19:34.960Z,1006.24
2023-01-30T04:20:34.957Z,1006.17
2023-01-30T04:21:34.951Z,1006.21
2023-01-30T04:22:34.923Z,1006.25
2023-01-30T04:23:34.964Z,1006.21
2023-01-30T04:24:34.920Z,1006.21
2023-01-30T04:25:34.905Z,1006.14
2023-01-30T04:26:34.895Z,1006.12
2023-01-30T04:27:34.887Z,1006.14
2023-01-30T04:28:34.859Z,1006.15
2023-01-30T04:29:34.867Z,1006.12
2023-01-30T04:30:34.875Z,1006.13
2023-01-30T04:31:34.880Z,1006.02
2023-01-30T04:32:34.837Z,1006.12
2023-01-30T04:33:34.824Z,1006.05
2023-01-30T04:34:34.793Z,1006.03
2023-01-30T04:35:34.777Z,1006.09
2023-01-30T04:36:34.778Z,1006.07
2023-01-30T04:37:34.774Z,1006.10
2023-01-30T04:38:34.769Z,1006.06
2023-01-30T04:39:34.733Z,1006.06
2023-01-30T04:40:34.737Z,1006.01
2023-01-30T04:41:34.735Z,1006.09
2023-01-30T04:42:34.725Z,1006.08
2023-01-30T04:43:34.704Z,1006.10
2023-01-30T04:44:34.677Z,1006.15
2023-01-30T04:45:34.669Z,1006.14
2023-01-30T04:46:34.677Z,1006.10
2023-01-30T04:47:34.711Z,1006.14
2023-01-30T04:48:34.672Z,1006.10
2023-01-30T04:49:34.631Z,1006.18
2023-01-30T04:50:34.618Z,1006.07
2023-01-30T04:51:34.611Z,1006.14
2023-01-30T04:52:34.613Z,1006.17
2023-01-30T04:53:34.583Z,1006.05
2023-01-30T04:54:34.565Z,1006.14
2023-01-30T04:55:34.558Z,1006.10
2023-01-30T04:56:34.561Z,1006.17
2023-01-30T04:57:34.557Z,1006.16
2023-01-30T04:58:34.517Z,1006.19
2023-01-30T04:59:34.510Z,1006.18
2023-01-30T05:00:34.715Z,1006.09
2023-01-30T05:01:34.559Z,1006.09
2023-01-30T05:02:34.481Z,1006.17
2023-01-30T05:03:34.479Z,1006.09
2023-01-30T05:04:34.476Z,1006.03
2023-01-30T05:05:34.454Z,1006.10
2023-01-30T05:06:34.463Z,1005.98
2023-01-30T05:07:34.428Z,1006.10
2023-01-30T05:08:34.421Z,1006.14
2023-01-30T05:09:34.404Z,1006.15
2023-01-30T05:10:34.390Z,1006.04
2023-01-30T05:11:34.379Z,1006.08
2023-01-30T05:12:34.384Z,1005.99
2023-01-30T05:13:34.356Z,1006.04
2023-01-30T05:14:34.339Z,1005.99
2023-01-30T05:15:34.331Z,1005.95
2023-01-30T05:16:34.325Z,1006.05
2023-01-30T05:17:34.330Z,1006.03
2023-01-30T05:18:34.309Z,1006.07
2023-01-30T05:19:34.287Z,1006.08
2023-01-30T05:20:34.291Z,1006.06
2023-01-30T05:21:34.262Z,1006.02
2023-01-30T05:22:34.253Z,1006.08
2023-01-30T05:23:34.238Z,1006.11
2023-01-30T05:24:34.250Z,1006.06
2023-01-30T05:25:34.214Z,1006.08
2023-01-30T05:26:34.333Z,1006.05
2023-01-30T05:27:34.198Z,1006.01
2023-01-30T05:28:34.195Z,1006.04
2023-01-30T05:29:34.184Z,1006.02
2023-01-30T05:30:34.228Z,1006.01
2023-01-30T05:31:34.199Z,1006.00
2023-01-30T05:32:34.138Z,1006.10
2023-01-30T05:33:34.135Z,1006.04
2023-01-30T05:34:34.128Z,1006.05
2023-01-30T05:35:34.105Z,1006.04
2023-01-30T05:36:34.117Z,1006.06
2023-01-30T05:37:34.121Z,1006.02
2023-01-30T05:38:34.081Z,1006.07
2023-01-30T05:39:34.063Z,1006.12
2023-01-30T05:40:34.069Z,1006.03
2023-01-30T05:41:34.053Z,1006.04
2023-01-30T05:42:34.033Z,1006.00
2023-01-30T05:43:34.012Z,1005.95
2023-01-30T05:44:34.020Z,1005.98
2023-01-30T05:45:33.994Z,1006.06
2023-01-30T05:46:34.012Z,1006.04
2023-01-30T05:47:34.005Z,1005.98
2023-01-30T05:48:33.974Z,1006.07
2023-01-30T05:49:33.944Z,1006.09
2023-01-30T05:50:33.944Z,1006.07
2023-01-30T05:51:33.933Z,1006.14
2023-01-30T05:52:33.936Z,1006.13
2023-01-30T05:53:33.926Z,1006.06
2023-01-30T05:54:33.893Z,1006.17
2023-01-30T05:55:33.876Z,1006.14
2023-01-30T05:56:33.897Z,1006.10
2023-01-30T05:57:33.859Z,1006.07
2023-01-30T05:58:33.851Z,1006.23
2023-01-30T05:59:33.830Z,1006.25
2023-01-30T06:00:33.829Z,1006.25
2023-01-30T06:01:33.830Z,1006.14
2023-01-30T06:02:33.833Z,1006.22
2023-01-30T06:03:33.821Z,1006.16
2023-01-30T06:04:33.789Z,1006.20
2023-01-30T06:05:33.766Z,1006.14
2023-01-30T06:06:33.767Z,1006.16
2023-01-30T06:07:33.761Z,1006.10
2023-01-30T06:08:33.782Z,1006.09
2023-01-30T06:09:33.721Z,1006.07
2023-01-30T06:10:33.739Z,1006.08
2023-01-30T06:11:33.699Z,1006.17
2023-01-30T06:12:33.718Z,1006.12
2023-01-30T06:13:33.704Z,1006.15
2023-01-30T06:14:33.669Z,1006.13
2023-01-30T06:15:33.653Z,1006.06
2023-01-30T06:16:33.722Z,1006.22
2023-01-30T06:17:33.633Z,1006.17
2023-01-30T06:18:33.616Z,1006.22
2023-01-30T06:19:33.619Z,1006.29
2023-01-30T06:20:33.604Z,1006.46
2023-01-30T06:21:33.600Z,1006.36
2023-01-30T06:22:33.580Z,1006.27
2023-01-30T06:23:33.570Z,1006.19
2023-01-30T06:24:33.585Z,1006.25
2023-01-30T06:25:33.548Z,1006.25
2023-01-30T06:26:33.619Z,1006.29
2023-01-30T06:27:33.535Z,1006.34
2023-01-30T06:28:33.519Z,1006.37
2023-01-30T06:29:33.516Z,1006.49
2023-01-30T06:30:33.508Z,1006.41
2023-01-30T06:31:33.528Z,1006.47
2023-01-30T06:32:33.469Z,1006.47
2023-01-30T06:33:33.554Z,1006.47
2023-01-30T06:34:33.449Z,1006.45
2023-01-30T06:35:33.454Z,1006.48
2023-01-30T06:36:33.419Z,1006.45
2023-01-30T06:37:33.415Z,1006.50
2023-01-30T06:38:33.398Z,1006.54
2023-01-30T06:39:33.393Z,1006.54
2023-01-30T06:40:33.418Z,1006.55
2023-01-30T06:41:33.361Z,1006.57
2023-01-30T06:42:33.395Z,1006.60
2023-01-30T06:43:33.364Z,1006.56
2023-01-30T06:44:33.349Z,1006.64
2023-01-30T06:45:34.389Z,1006.55
2023-01-30T06:46:33.381Z,1006.51
2023-01-30T06:47:33.288Z,1006.56
2023-01-30T06:48:33.314Z,1006.57
2023-01-30T06:49:33.268Z,1006.59
2023-01-30T06:50:33.259Z,1006.73
2023-01-30T06:51:33.280Z,1006.75
2023-01-30T06:52:33.236Z,1006.75
2023-01-30T06:53:33.263Z,1006.77
2023-01-30T06:54:33.212Z,1006.77
2023-01-30T06:55:33.219Z,1006.80
2023-01-30T06:56:33.222Z,1006.76
2023-01-30T06:57:33.213Z,1006.75
2023-01-30T06:58:33.182Z,1006.70
2023-01-30T06:59:33.164Z,1006.75
2023-01-30T07:00:33.185Z,1006.71
2023-01-30T07:01:33.182Z,1006.72
2023-01-30T07:02:33.125Z,1006.69
2023-01-30T07:03:33.115Z,1006.70
2023-01-30T07:04:33.124Z,1006.71
2023-01-30T07:05:33.100Z,1006.75
2023-01-30T07:06:33.087Z,1006.74
2023-01-30T07:07:33.096Z,1006.80
2023-01-30T07:08:33.065Z,1006.75
2023-01-30T07:09:33.048Z,1006.77
2023-01-30T07:10:33.063Z,1006.73
2023-01-30T07:11:33.050Z,1006.82
2023-01-30T07:12:33.039Z,1006.77
2023-01-30T07:13:33.001Z,1006.81
2023-01-30T07:14:32.990Z,1006.85
2023-01-30T07:15:32.984Z,1006.86
2023-01-30T07:16:33.020Z,1006.87
2023-01-30T07:17:32.960Z,1006.87
2023-01-30T07:18:32.955Z,1006.93
2023-01-30T07:19:32.993Z,1006.89
2023-01-30T07:20:32.957Z,1006.89
2023-01-30T07:21:32.913Z,1006.90
2023-01-30T07:22:32.920Z,1006.90
2023-01-30T07:23:32.930Z,1006.81
2023-01-30T07:24:32.879Z,1006.83
2023-01-30T07:25:32.862Z,1006.84
2023-01-30T07:26:32.929Z,1006.87
2023-01-30T07:27:32.850Z,1006.85
2023-01-30T07:28:32.857Z,1006.93
2023-01-30T07:29:32.828Z,1006.94
2023-01-30T07:30:32.876Z,1006.95
2023-01-30T07:31:32.844Z,1007.07
2023-01-30T07:32:32.792Z,1007.04
2023-01-30T07:33:32.773Z,1007.19
2023-01-30T07:34:32.768Z,1007.15
2023-01-30T07:35:32.757Z,1007.22
2023-01-30T07:36:32.746Z,1007.09
2023-01-30T07:37:32.749Z,1007.13
2023-01-30T07:38:32.727Z,1007.10
2023-01-30T07:39:32.719Z,1007.14
2023-01-30T07:40:32.727Z,1007.19
2023-01-30T07:41:32.702Z,1007.26
2023-01-30T07:42:32.694Z,1007.13
2023-01-30T07:43:32.666Z,1007.22
2023-01-30T07:44:32.676Z,1007.19
2023-01-30T07:45:32.641Z,1007.24
2023-01-30T07:46:32.828Z,1007.19
2023-01-30T07:47:32.644Z,1007.14
2023-01-30T07:48:32.615Z,1007.29
2023-01-30T07:49:32.637Z,1007.15
2023-01-30T07:50:32.620Z,1007.16
2023-01-30T07:51:32.602Z,1007.16
2023-01-30T07:52:32.579Z,1007.18
2023-01-30T07:53:32.580Z,1007.28
2023-01-30T07:54:32.550Z,1007.15
2023-01-30T07:55:32.557Z,1007.20
2023-01-30T07:56:32.522Z,1007.14
2023-01-30T07:57:32.529Z,1007.12
2023-01-30T07:58:32.504Z,1007.19
2023-01-30T07:59:32.502Z,1007.11
2023-01-30T08:00:32.526Z,1007.09
2023-01-30T08:01:32.535Z,1007.12
2023-01-30T08:02:32.458Z,1007.09
2023-01-30T08:03:32.444Z,1007.08
2023-01-30T08:04:32.492Z,1007.04
2023-01-30T08:05:32.421Z,1007.11
2023-01-30T08:06:32.452Z,1007.17
2023-01-30T08:07:32.431Z,1007.12
2023-01-30T08:08:32.395Z,1007.24
2023-01-30T08:09:32.381Z,1007.21
2023-01-30T08:10:32.382Z,1007.12
2023-01-30T08:11:32.366Z,1007.17
2023-01-30T08:12:32.352Z,1007.19
2023-01-30T08:13:32.336Z,1007.17
2023-01-30T08:14:32.322Z,1007.15
2023-01-30T08:15:32.335Z,1007.16
2023-01-30T08:16:32.547Z,1007.21
2023-01-30T08:17:32.290Z,1007.12
2023-01-30T08:18:32.293Z,1007.21
2023-01-30T08:19:32.258Z,1007.23
2023-01-30T08:20:32.257Z,1007.25
2023-01-30T08:21:32.236Z,1007.26
2023-01-30T08:22:32.250Z,1007.22
2023-01-30T08:23:32.225Z,1007.25
2023-01-30T08:24:32.231Z,1007.27
2023-01-30T08:25:32.197Z,1007.33
2023-01-30T08:26:32.284Z,1007.26
2023-01-30T08:27:32.171Z,1007.35
2023-01-30T08:28:32.168Z,1007.33
2023-01-30T08:29:32.161Z,1007.38
2023-01-30T08:30:32.158Z,1007.39
2023-01-30T08:31:32.229Z,1007.41
2023-01-30T08:32:32.157Z,1007.31
2023-01-30T08:33:32.164Z,1007.45
2023-01-30T08:34:32.091Z,1007.33
2023-01-30T08:35:32.088Z,1007.35
2023-01-30T08:36:32.067Z,1007.39
2023-01-30T08:37:32.099Z,1007.31
2023-01-30T08:38:32.047Z,1007.33
2023-01-30T08:39:32.048Z,1007.39
2023-01-30T08:40:32.049Z,1007.35
2023-01-30T08:41:32.021Z,1007.33
2023-01-30T08:42:32.047Z,1007.40
2023-01-30T08:43:32.021Z,1007.40
2023-01-30T08:44:31.997Z,1007.35
2023-01-30T08:45:31.964Z,1007.44
2023-01-30T08:46:32.019Z,1007.38
2023-01-30T08:47:31.946Z,1007.36
2023-01-30T08:48:43.326Z,1007.48
2023-01-30T08:49:32.944Z,1007.48
2023-01-30T08:50:31.917Z,1007.46
2023-01-30T08:51:31.894Z,1007.50
2023-01-30T08:52:31.907Z,1007.45
2023-01-30T08:53:31.872Z,1007.43
2023-01-30T08:54:33.335Z,1007.46
2023-01-30T08:55:31.844Z,1007.50
2023-01-30T08:56:31.844Z,1007.63
2023-01-30T08:57:31.824Z,1007.52
2023-01-30T08:58:31.834Z,1007.57
2023-01-30T08:59:31.812Z,1007.51
2023-01-30T09:00:31.811Z,1007.59
2023-01-30T09:01:31.815Z,1007.56
2023-01-30T09:02:31.791Z,1007.46
2023-01-30T09:03:31.799Z,1007.59
2023-01-30T09:04:31.770Z,1007.47
2023-01-30T09:05:31.779Z,1007.39
2023-01-30T09:06:31.748Z,1007.49
2023-01-30T09:07:31.714Z,1007.40
2023-01-30T09:08:31.706Z,1007.41
2023-01-30T09:09:31.707Z,1007.44
2023-01-30T09:10:31.696Z,1007.38
2023-01-30T09:11:31.671Z,1007.31
2023-01-30T09:12:31.677Z,1007.46
2023-01-30T09:13:31.646Z,1007.31
2023-01-30T09:14:31.636Z,1007.26
2023-01-30T09:15:31.639Z,1007.35
2023-01-30T09:16:31.645Z,1007.34
2023-01-30T09:17:31.624Z,1007.27
2023-01-30T09:18:31.597Z,1007.29
2023-01-30T09:19:31.576Z,1007.34
2023-01-30T09:20:31.592Z,1007.34
2023-01-30T09:21:31.572Z,1007.34
2023-01-30T09:22:31.552Z,1007.40
2023-01-30T09:23:31.548Z,1007.49
2023-01-30T09:24:31.525Z,1007.48
2023-01-30T09:25:31.507Z,1007.45
2023-01-30T09:26:31.558Z,1007.45
2023-01-30T09:27:31.486Z,1007.41
2023-01-30T09:28:31.478Z,1007.43
2023-01-30T09:29:31.482Z,1007.38
2023-01-30T09:30:31.554Z,1007.39
2023-01-30T09:31:31.631Z,1007.49
2023-01-30T09:32:31.433Z,1007.47
2023-01-30T09:33:31.419Z,1007.54
2023-01-30T09:34:31.414Z,1007.57
2023-01-30T09:35:31.397Z,1007.54
2023-01-30T09:36:31.408Z,1007.50
2023-01-30T09:37:31.393Z,1007.48
2023-01-30T09:38:31.368Z,1007.44
2023-01-30T09:39:31.352Z,1007.43
2023-01-30T09:40:31.357Z,1007.53
2023-01-30T09:41:31.338Z,1007.49
2023-01-30T09:42:31.316Z,1007.60
2023-01-30T09:43:31.312Z,1007.72
2023-01-30T09:44:31.316Z,1007.68
2023-01-30T09:45:31.285Z,1007.63
2023-01-30T09:46:31.320Z,1007.69
2023-01-30T09:47:31.262Z,1007.71
2023-01-30T09:48:31.274Z,1007.78
2023-01-30T09:49:31.247Z,1007.87
2023-01-30T09:50:31.269Z,1007.82
2023-01-30T09:51:31.215Z,1007.84
2023-01-30T09:52:31.229Z,1007.75
2023-01-30T09:53:31.208Z,1007.75
2023-01-30T09:54:31.204Z,1007.79
2023-01-30T09:55:31.167Z,1007.86
2023-01-30T09:56:31.162Z,1007.79
2023-01-30T09:57:31.144Z,1007.81
2023-01-30T09:58:31.143Z,1007.61
2023-01-30T09:59:31.133Z,1007.81
2023-01-30T10:00:31.131Z,1007.66
2023-01-30T10:01:31.105Z,1007.78
2023-01-30T10:02:31.102Z,1007.76
2023-01-30T10:03:31.159Z,1007.74
2023-01-30T10:04:31.118Z,1007.90
2023-01-30T10:05:31.078Z,1007.75
2023-01-30T10:06:31.042Z,1007.79
2023-01-30T10:07:31.093Z,1007.75
2023-01-30T10:08:31.050Z,1007.80
2023-01-30T10:09:31.021Z,1007.76
2023-01-30T10:10:31.042Z,1007.75
2023-01-30T10:11:31.000Z,1007.74
2023-01-30T10:12:30.978Z,1007.65
2023-01-30T10:13:30.965Z,1007.76
2023-01-30T10:14:30.965Z,1007.79
2023-01-30T10:15:30.942Z,1007.83
2023-01-30T10:16:30.953Z,1007.73
2023-01-30T10:17:32.714Z,1007.77
2023-01-30T10:18:30.916Z,1007.73
2023-01-30T10:19:36.011Z,1007.75
2023-01-30T10:20:31.878Z,1007.95
2023-01-30T10:21:30.897Z,1007.83
2023-01-30T10:22:30.928Z,1007.80
2023-01-30T10:23:30.853Z,1007.72
2023-01-30T10:24:30.861Z,1007.79
2023-01-30T10:25:30.841Z,1007.80
2023-01-30T10:26:30.862Z,1007.73
2023-01-30T10:27:30.832Z,1007.69
2023-01-30T10:28:30.846Z,1007.80
2023-01-30T10:29:30.787Z,1007.80
2023-01-30T10:30:30.788Z,1007.90
2023-01-30T10:31:30.877Z,1007.74
2023-01-30T10:32:30.754Z,1007.83
2023-01-30T10:33:30.811Z,1007.78
2023-01-30T10:34:30.818Z,1007.81
2023-01-30T10:35:30.719Z,1007.77
2023-01-30T10:36:30.705Z,1007.67
2023-01-30T10:37:30.688Z,1007.73
2023-01-30T10:38:30.709Z,1007.74
2023-01-30T10:39:30.674Z,1007.84
2023-01-30T10:40:30.692Z,1007.75
2023-01-30T10:41:30.647Z,1007.86
2023-01-30T10:42:30.643Z,1007.82
2023-01-30T10:43:30.647Z,1007.78
2023-01-30T10:44:30.609Z,1007.77
2023-01-30T10:45:30.609Z,1007.73
2023-01-30T10:46:30.653Z,1007.82
2023-01-30T10:47:38.041Z,1007.88
2023-01-30T10:48:43.844Z,1007.91
2023-01-30T10:49:31.578Z,1007.85
2023-01-30T10:50:30.542Z,1007.79
2023-01-30T10:51:30.546Z,1007.78
2023-01-30T10:52:30.517Z,1007.88
2023-01-30T10:53:30.521Z,1007.69
2023-01-30T10:54:30.520Z,1007.72
2023-01-30T10:55:37.232Z,1007.77
2023-01-30T10:56:31.499Z,1007.80
2023-01-30T10:57:30.464Z,1007.67
2023-01-30T10:58:30.456Z,1007.76
2023-01-30T10:59:30.463Z,1007.73
2023-01-30T11:00:30.446Z,1007.76
2023-01-30T11:01:30.433Z,1007.81
2023-01-30T11:02:30.441Z,1007.69
2023-01-30T11:03:30.400Z,1007.80
2023-01-30T11:04:30.472Z,1007.78
2023-01-30T11:05:30.389Z,1007.81
2023-01-30T11:06:30.371Z,1007.75
2023-01-30T11:07:30.357Z,1007.80
2023-01-30T11:08:30.339Z,1007.78
2023-01-30T11:09:30.361Z,1007.74
2023-01-30T11:10:30.331Z,1007.82
2023-01-30T11:11:30.322Z,1007.84
2023-01-30T11:12:30.315Z,1007.87
2023-01-30T11:13:30.286Z,1007.81
2023-01-30T11:14:30.267Z,1007.98
2023-01-30T11:15:30.265Z,1007.78
2023-01-30T11:16:30.314Z,1007.86
2023-01-30T11:17:30.242Z,1007.82
2023-01-30T11:19:31.221Z,1007.90
2023-01-30T11:20:30.222Z,1007.89
2023-01-30T11:21:42.396Z,1007.85
2023-01-30T11:22:31.178Z,1007.86
2023-01-30T11:23:30.202Z,1007.84
2023-01-30T11:24:30.171Z,1007.79
2023-01-30T11:25:30.149Z,1007.91
2023-01-30T11:26:41.513Z,1007.89
2023-01-30T11:27:31.131Z,1007.83
2023-01-30T11:28:30.130Z,1007.96
2023-01-30T11:29:30.116Z,1007.85
2023-01-30T11:30:30.088Z,1007.81
2023-01-30T11:31:41.055Z,1007.87
2023-01-30T11:32:31.170Z,1007.97
2023-01-30T11:33:30.077Z,1007.97
2023-01-30T11:34:30.045Z,1007.96
2023-01-30T11:35:30.058Z,1007.91
2023-01-30T11:36:30.021Z,1007.81
2023-01-30T11:37:30.013Z,1007.86
2023-01-30T11:38:30.017Z,1007.79
2023-01-30T11:39:29.992Z,1007.86
2023-01-30T11:40:29.980Z,1007.80
2023-01-30T11:41:29.961Z,1007.84
2023-01-30T11:42:29.955Z,1007.84
2023-01-30T11:43:29.960Z,1007.86
2023-01-30T11:44:29.957Z,1007.80
2023-01-30T11:45:30.037Z,1007.90
2023-01-30T11:46:29.933Z,1007.94
2023-01-30T11:47:29.903Z,1007.82
2023-01-30T11:48:32.975Z,1007.94
2023-01-30T11:49:46.681Z,1007.95
2023-01-30T11:50:34.045Z,1007.86
2023-01-30T11:51:30.885Z,1007.89
2023-01-30T11:52:29.867Z,1007.94
2023-01-30T11:53:29.846Z,1007.99
2023-01-30T11:54:29.826Z,1008.02
2023-01-30T11:55:29.813Z,1007.97
2023-01-30T11:56:29.797Z,1007.99
2023-01-30T11:57:29.788Z,1007.93
2023-01-30T11:58:29.789Z,1008.01
2023-01-30T11:59:29.763Z,1008.01
2023-01-30T12:00:29.772Z,1008.03
2023-01-30T12:01:29.838Z,1008.04
2023-01-30T12:02:29.766Z,1008.11
2023-01-30T12:03:29.844Z,1007.98
2023-01-30T12:04:29.706Z,1007.98
2023-01-30T12:05:29.695Z,1008.01
2023-01-30T12:06:29.697Z,1007.98